Time;durP1;ratioP1;P1;durP2;ratioP2;P2;SDS_P1;SDS_P2;PMS_P1;PMS_P2;Temp;Humidity;BMP_temperature;BMP_pressure;BME280_temperature;BME280_humidity;BME280_pressure;Samples;Min_cycle;Max_cycle;Signal;HPM_P1;HPM_P2
2023/08/12 00:02:08;;;;;;;8.38;6.93;;;;;;;20.46;54.47;94022.25;5071760;28;20048;-91
2023/08/12 00:04:33;;;;;;;10.25;7.57;;;;;;;20.45;54.37;94016.00;5091922;27;20036;-89
2023/08/12 00:06:59;;;;;;;9.82;6.93;;;;;;;20.46;54.53;94012.00;5055999;28;20036;-92
2023/08/12 00:09:24;;;;;;;8.80;6.57;;;;;;;20.46;54.43;94016.75;5072876;28;20036;-91
2023/08/12 00:11:50;;;;;;;11.20;7.47;;;;;;;20.45;54.28;94009.75;5090105;27;20031;-89
2023/08/12 00:14:15;;;;;;;10.02;7.35;;;;;;;20.45;54.53;94009.75;5086456;28;20057;-91
2023/08/12 00:16:43;;;;;;;10.10;7.20;;;;;;;20.45;54.34;94010.50;5067616;27;20046;-90
2023/08/12 00:19:09;;;;;;;11.68;7.53;;;;;;;20.46;54.27;94011.25;5079511;27;20737;-89
2023/08/12 00:21:34;;;;;;;10.52;7.47;;;;;;;20.44;54.38;94008.28;5078526;28;20043;-89
2023/08/12 00:24:00;;;;;;;9.48;7.15;;;;;;;20.45;54.48;94004.28;5059041;28;20426;-91
2023/08/12 00:26:26;;;;;;;9.85;7.22;;;;;;;20.46;54.17;94000.28;5091078;27;20066;-89
2023/08/12 00:28:52;;;;;;;9.82;7.38;;;;;;;20.44;54.05;94003.53;5076705;28;20075;-88
2023/08/12 00:31:17;;;;;;;9.52;7.28;;;;;;;20.45;54.19;94004.28;5075183;28;20044;-90
2023/08/12 00:33:43;;;;;;;9.77;6.82;;;;;;;20.46;54.38;94000.28;5075402;28;20051;-90
2023/08/12 00:36:08;;;;;;;8.70;6.97;;;;;;;20.44;54.25;94005.53;5058030;28;20081;-88
2023/08/12 00:38:34;;;;;;;10.52;7.07;;;;;;;20.44;54.26;93994.53;5075549;27;20031;-93
2023/08/12 00:40:59;;;;;;;7.90;6.47;;;;;;;20.43;54.33;93982.81;5072028;28;20063;-91
2023/08/12 00:43:26;;;;;;;9.70;7.30;;;;;;;20.43;54.48;93977.31;5078402;27;20032;-92
2023/08/12 00:45:51;;;;;;;9.77;6.70;;;;;;;20.43;54.36;93990.28;5078198;28;20051;-89
2023/08/12 00:48:17;;;;;;;10.27;7.43;;;;;;;20.43;54.60;93982.81;5090511;27;20088;-92
2023/08/12 00:50:43;;;;;;;10.40;7.18;;;;;;;20.41;54.22;93979.81;5072525;28;20949;-92
2023/08/12 00:53:09;;;;;;;8.35;6.55;;;;;;;20.43;54.52;93971.06;5092209;28;20080;-90
2023/08/12 00:55:35;;;;;;;10.57;7.70;;;;;;;20.43;54.32;93971.06;5072444;28;20044;-92
2023/08/12 00:58:00;;;;;;;9.00;6.97;;;;;;;20.42;54.23;93964.09;5075005;28;20055;-90
2023/08/12 01:00:26;;;;;;;9.70;6.93;;;;;;;20.42;54.63;93958.59;5057910;28;20043;-93
2023/08/12 01:02:51;;;;;;;9.63;7.00;;;;;;;20.42;54.39;93961.34;5094767;27;20043;-89
2023/08/12 01:05:17;;;;;;;7.25;6.38;;;;;;;20.42;54.37;93955.84;5086716;28;20047;-93
2023/08/12 01:07:42;;;;;;;12.30;8.00;;;;;;;20.42;54.45;93964.84;5065499;27;20039;-91
2023/08/12 01:10:10;;;;;;;9.15;6.85;;;;;;;20.42;54.32;93964.84;5075992;27;20127;-88
2023/08/12 01:12:41;;;;;;;8.32;6.35;;;;;;;20.41;54.30;93957.09;5080161;27;20039;-91
2023/08/12 01:15:17;;;;;;;8.32;6.10;;;;;;;20.41;54.20;93955.09;5089105;27;20099;-92
2023/08/12 01:17:43;;;;;;;8.98;6.72;;;;;;;20.41;54.22;93949.63;5076884;28;20042;-92
2023/08/12 01:20:09;;;;;;;7.70;6.22;;;;;;;20.41;54.53;93949.63;5076012;27;20047;-88
2023/08/12 01:22:36;;;;;;;8.85;6.15;;;;;;;20.41;54.20;93957.84;5089063;28;20084;-92
2023/08/12 01:25:02;;;;;;;7.85;6.47;;;;;;;20.42;54.22;93945.63;5056714;28;20085;-90
2023/08/12 01:27:27;;;;;;;8.18;6.70;;;;;;;20.40;54.37;93952.88;5094716;27;20035;-89
2023/08/12 01:29:52;;;;;;;8.93;6.10;;;;;;;20.41;54.33;93946.13;5077415;27;20039;-90
2023/08/12 01:32:32;;;;;;;8.73;6.53;;;;;;;20.40;54.15;93941.88;5091004;28;20097;-94
2023/08/12 01:35:06;;;;;;;9.57;6.45;;;;;;;20.40;54.08;93939.88;5070893;28;20040;-91
2023/08/12 01:37:32;;;;;;;8.55;6.60;;;;;;;20.39;54.10;93935.66;5099969;28;20046;-89
2023/08/12 01:40:00;;;;;;;9.77;7.00;;;;;;;20.39;54.03;93941.13;5093904;27;20035;-88
2023/08/12 01:42:26;;;;;;;8.90;6.43;;;;;;;20.39;54.18;93937.66;5087724;28;20063;-91
2023/08/12 01:44:52;;;;;;;9.43;6.47;;;;;;;20.38;54.19;93930.66;5054655;28;20527;-90
2023/08/12 01:47:17;;;;;;;7.65;6.43;;;;;;;20.39;54.13;93930.16;5058864;28;20052;-92
2023/08/12 01:49:43;;;;;;;10.13;7.38;;;;;;;20.38;54.45;93938.91;5073300;27;20060;-92
2023/08/12 01:52:08;;;;;;;8.50;6.40;;;;;;;20.38;54.17;93936.16;5073286;28;20048;-94
2023/08/12 01:54:34;;;;;;;8.55;6.70;;;;;;;20.38;54.14;93942.41;5047659;28;20506;-93
2023/08/12 01:57:05;;;;;;;8.45;6.72;;;;;;;20.37;54.51;93934.66;5067765;28;20054;-93
2023/08/12 01:59:31;;;;;;;;;;;;;;;20.39;54.12;93932.16;5070380;28;20113;-93
2023/08/12 02:01:56;;;;;;;8.75;6.55;;;;;;;20.36;54.32;93939.38;5086496;28;19985;-90
2023/08/12 02:04:22;;;;;;;8.63;6.25;;;;;;;20.37;54.36;93940.16;5054495;28;20454;-91
2023/08/12 02:06:47;;;;;;;8.15;6.07;;;;;;;20.37;54.25;93940.16;5054122;28;20040;-91
2023/08/12 02:09:12;;;;;;;9.63;7.20;;;;;;;20.35;54.13;93939.91;5069824;28;20463;-89
2023/08/12 02:11:38;;;;;;;8.68;6.45;;;;;;;20.36;54.35;93935.91;5074614;28;20044;-88
2023/08/12 02:14:03;;;;;;;8.45;6.72;;;;;;;20.36;54.23;93933.88;5067481;28;20451;-89
2023/08/12 02:16:29;;;;;;;8.10;5.95;;;;;;;20.37;54.29;93934.66;5070723;28;20086;-93
2023/08/12 02:18:54;;;;;;;8.52;6.43;;;;;;;20.37;54.27;93929.91;5067330;28;20036;-90
2023/08/12 02:21:19;;;;;;;9.07;6.95;;;;;;;20.36;53.95;93931.16;5051857;28;20422;-93
2023/08/12 02:23:45;;;;;;;8.32;6.18;;;;;;;20.35;54.18;93926.91;5081666;28;20405;-92
2023/08/12 02:26:10;;;;;;;8.98;5.88;;;;;;;20.35;54.08;93920.69;5056866;28;20032;-89
2023/08/12 02:28:36;;;;;;;9.23;6.05;;;;;;;20.36;54.21;93925.66;5070405;28;20032;-90
2023/08/12 02:31:01;;;;;;;8.98;6.03;;;;;;;20.35;54.09;93926.91;5086655;28;20394;-91
2023/08/12 02:33:27;;;;;;;11.60;6.07;;;;;;;20.36;54.19;93927.66;5082206;28;20059;-93
2023/08/12 02:35:54;;;;;;;8.75;6.40;;;;;;;20.35;54.15;93926.91;5064559;28;20036;-89
2023/08/12 02:38:20;;;;;;;8.15;5.85;;;;;;;20.35;54.33;93918.66;5070531;28;20060;-93
2023/08/12 02:40:48;;;;;;;8.55;5.93;;;;;;;20.36;53.99;93913.94;5084607;28;20060;-91
2023/08/12 02:43:13;;;;;;;8.40;6.45;;;;;;;20.35;54.12;93915.94;5069907;28;20168;-91
2023/08/12 02:45:38;;;;;;;7.93;6.28;;;;;;;20.35;54.28;93906.97;5052297;28;20076;-91
2023/08/12 02:48:04;;;;;;;9.65;5.68;;;;;;;20.35;54.12;93896.72;5063115;28;20040;-88
2023/08/12 02:50:30;;;;;;;8.40;5.95;;;;;;;20.35;53.96;93910.44;5052764;28;20032;-92
2023/08/12 02:52:55;;;;;;;8.38;6.82;;;;;;;20.34;54.11;93908.97;5067047;28;20044;-90
2023/08/12 02:55:21;;;;;;;7.78;5.72;;;;;;;20.34;54.03;93911.72;5058252;28;20051;-93
2023/08/12 02:57:46;;;;;;;7.40;5.43;;;;;;;20.35;54.12;93899.44;5068286;28;20040;-91
2023/08/12 03:00:12;;;;;;;7.30;5.90;;;;;;;20.35;54.00;93898.72;5068877;28;20036;-90
2023/08/12 03:02:38;;;;;;;8.10;6.57;;;;;;;20.34;53.81;93897.25;5070076;28;20048;-89
2023/08/12 03:05:03;;;;;;;7.53;5.90;;;;;;;20.33;54.27;93898.50;5065848;28;20040;-92
2023/08/12 03:07:29;;;;;;;6.72;5.53;;;;;;;20.34;54.02;93894.50;5068185;28;20040;-89
2023/08/12 03:09:54;;;;;;;7.43;5.60;;;;;;;20.34;54.33;93905.47;5055773;28;20051;-89
2023/08/12 03:12:19;;;;;;;7.10;5.80;;;;;;;20.33;54.00;93893.75;5069669;28;20040;-93
2023/08/12 03:14:45;;;;;;;7.05;5.65;;;;;;;20.33;54.28;93901.25;5075101;28;20048;-90
2023/08/12 03:17:10;;;;;;;8.05;5.70;;;;;;;20.33;54.12;93902.00;5069795;28;20041;-89
2023/08/12 03:19:36;;;;;;;7.85;6.20;;;;;;;20.32;54.04;93897.75;5057016;28;20036;-92
2023/08/12 03:22:01;;;;;;;7.07;6.03;;;;;;;20.32;54.31;93902.50;5073242;28;20039;-94
2023/08/12 03:24:26;;;;;;;6.43;5.32;;;;;;;20.33;54.27;93898.50;5090202;28;20027;-91
2023/08/12 03:26:52;;;;;;;8.70;5.97;;;;;;;20.32;54.14;93897.00;5073523;28;20048;-88
2023/08/12 03:29:17;;;;;;;7.05;5.55;;;;;;;20.32;54.18;93894.25;5090406;28;20036;-93
2023/08/12 03:31:44;;;;;;;8.05;5.97;;;;;;;20.31;54.34;93893.50;5056822;28;20036;-90
2023/08/12 03:34:09;;;;;;;7.88;5.35;;;;;;;20.32;54.24;93883.28;5061466;28;20502;-90
2023/08/12 03:36:35;;;;;;;7.00;5.90;;;;;;;20.33;54.19;93890.25;5060431;28;20091;-92
2023/08/12 03:39:00;;;;;;;7.80;5.90;;;;;;;20.30;54.19;93886.53;5089396;28;20040;-92
2023/08/12 03:41:25;;;;;;;7.20;5.15;;;;;;;20.31;54.29;93890.03;5070528;28;20041;-91
2023/08/12 03:43:51;;;;;;;6.47;5.43;;;;;;;20.31;54.17;93884.53;5073381;28;20028;-88
2023/08/12 03:46:17;;;;;;;7.30;5.95;;;;;;;20.31;54.01;93882.53;5072177;28;20397;-92
2023/08/12 03:48:42;;;;;;;8.80;5.65;;;;;;;20.32;54.36;93888.78;5090236;28;20398;-93
2023/08/12 03:51:07;;;;;;;7.40;5.35;;;;;;;20.32;54.35;93888.78;5070485;28;20059;-91
2023/08/12 03:53:33;;;;;;;7.47;5.68;;;;;;;20.31;53.99;93888.03;5070996;28;20409;-92
2023/08/12 03:55:58;;;;;;;7.80;5.60;;;;;;;20.30;54.41;93877.56;5060506;27;20500;-88
2023/08/12 03:58:24;;;;;;;10.20;6.38;;;;;;;20.31;54.11;93885.28;5075639;28;20031;-89
2023/08/12 04:00:49;;;;;;;8.27;6.10;;;;;;;20.30;54.35;93877.56;5092667;28;20053;-90
2023/08/12 04:03:15;;;;;;;8.52;6.03;;;;;;;20.31;54.21;93873.56;5095141;27;20053;-91
2023/08/12 04:05:49;;;;;;;6.90;5.43;;;;;;;20.30;54.12;93877.56;5059666;28;20089;-91
2023/08/12 04:08:14;;;;;;;7.25;5.68;;;;;;;20.32;54.03;93870.28;5076101;28;20036;-90
2023/08/12 04:10:40;;;;;;;8.45;5.72;;;;;;;20.33;54.21;93871.03;5056618;28;20569;-91
2023/08/12 04:13:06;;;;;;;6.65;5.07;;;;;;;20.32;54.09;93881.28;5087258;28;20048;-88
2023/08/12 04:15:31;;;;;;;6.43;4.90;;;;;;;20.31;54.01;93874.28;5090044;28;20029;-89
2023/08/12 04:17:58;;;;;;;8.10;5.35;;;;;;;20.33;54.06;93882.03;5075116;28;20062;-91
2023/08/12 04:20:24;;;;;;;5.95;4.90;;;;;;;20.45;53.85;93873.19;5064625;27;20496;-89
2023/08/12 04:22:49;;;;;;;6.68;5.10;;;;;;;20.56;53.25;93871.63;5080242;27;20078;-93
2023/08/12 04:25:14;;;;;;;6.53;5.45;;;;;;;20.50;53.54;93875.16;5073100;28;20401;-91
2023/08/12 04:27:40;;;;;;;6.05;4.82;;;;;;;20.45;53.68;93873.19;5072442;28;20521;-92
2023/08/12 04:30:08;;;;;;;5.88;4.90;;;;;;;20.44;53.78;93870.97;5074640;27;20036;-93
2023/08/12 04:32:33;;;;;;;6.45;5.00;;;;;;;20.42;53.75;93878.97;5101874;27;20039;-91
2023/08/12 04:34:59;;;;;;;6.38;5.43;;;;;;;20.41;53.95;93867.22;5063704;27;20028;-89
2023/08/12 04:37:25;;;;;;;6.07;4.95;;;;;;;20.41;53.92;93869.22;5074551;28;20437;-89
2023/08/12 04:39:51;;;;;;;6.72;5.68;;;;;;;20.42;53.83;93862.50;5059329;28;20118;-89
2023/08/12 04:42:16;;;;;;;6.70;5.38;;;;;;;20.41;53.72;93861.75;5093307;27;20043;-92
2023/08/12 04:44:42;;;;;;;7.90;5.55;;;;;;;20.42;53.79;93860.47;5096843;27;20038;-93
2023/08/12 04:47:10;;;;;;;6.75;4.95;;;;;;;20.43;53.75;93869.47;5076924;27;20039;-89
2023/08/12 04:49:36;;;;;;;5.28;4.60;;;;;;;20.44;54.01;93874.44;5058712;28;20051;-91
2023/08/12 04:52:01;;;;;;;6.65;5.45;;;;;;;20.43;53.88;93859.22;5061756;27;20111;-91
2023/08/12 04:54:27;;;;;;;7.28;5.43;;;;;;;20.45;53.86;93864.97;5092534;28;20038;-93
2023/08/12 04:56:52;;;;;;;7.05;5.20;;;;;;;20.47;53.84;93875.44;5108670;28;20039;-89
2023/08/12 04:59:18;;;;;;;6.28;4.88;;;;;;;20.46;53.76;93860.22;5090286;28;20040;-89
2023/08/12 05:01:44;;;;;;;5.53;4.63;;;;;;;20.46;53.72;93866.44;5072094;28;20051;-89
2023/08/12 05:04:09;;;;;;;5.97;4.68;;;;;;;20.47;53.68;93869.94;5088106;28;20494;-90
2023/08/12 05:06:35;;;;;;;6.63;4.75;;;;;;;20.47;53.78;93867.19;5089103;28;20073;-91
2023/08/12 05:09:00;;;;;;;6.65;5.03;;;;;;;20.49;53.72;93861.94;5088837;28;20040;-89
2023/08/12 05:11:26;;;;;;;6.45;4.95;;;;;;;20.48;53.76;93861.19;5080289;28;20070;-93
2023/08/12 05:13:51;;;;;;;5.88;4.90;;;;;;;20.52;53.69;93860.91;5092041;28;20509;-90
2023/08/12 05:16:16;;;;;;;5.65;4.97;;;;;;;20.52;53.62;93860.91;5078694;28;20044;-90
2023/08/12 05:18:42;;;;;;;6.00;4.65;;;;;;;20.52;53.53;93860.91;5090231;28;20043;-92
2023/08/12 05:21:08;;;;;;;5.18;4.68;;;;;;;20.53;53.51;93867.88;5056768;28;20094;-89
2023/08/12 05:23:33;;;;;;;5.85;5.00;;;;;;;20.53;53.59;93854.16;5088169;28;20528;-89
2023/08/12 05:25:59;;;;;;;5.80;4.55;;;;;;;20.56;53.60;93855.13;5078121;28;20047;-89
2023/08/12 05:28:24;;;;;;;6.80;4.50;;;;;;;20.57;53.41;93849.09;5090250;28;20040;-90
2023/08/12 05:30:50;;;;;;;5.60;4.05;;;;;;;20.58;53.34;93853.34;5091495;28;20039;-91
2023/08/12 05:33:15;;;;;;;5.10;4.20;;;;;;;20.62;52.98;93855.81;5072979;28;20437;-90
2023/08/12 05:35:40;;;;;;;5.38;4.05;;;;;;;20.61;53.42;93860.56;5067443;28;20043;-91
2023/08/12 05:38:06;;;;;;;4.38;3.88;;;;;;;20.63;53.33;93860.03;5070436;28;20040;-88
2023/08/12 05:40:31;;;;;;;4.88;3.78;;;;;;;20.65;53.27;93860.28;5071239;28;20385;-90
2023/08/12 05:42:57;;;;;;;4.72;4.22;;;;;;;20.66;53.33;93846.03;5071248;28;20044;-88
2023/08/12 05:45:22;;;;;;;4.55;3.95;;;;;;;20.67;53.13;93858.50;5088199;28;20039;-88
2023/08/12 05:47:47;;;;;;;4.38;3.92;;;;;;;20.68;53.55;93851.75;5086859;28;20055;-90
2023/08/12 05:50:14;;;;;;;6.18;4.60;;;;;;;20.70;53.46;93860.22;5053727;28;20044;-90
2023/08/12 05:52:39;;;;;;;5.78;4.43;;;;;;;20.73;53.18;93852.97;5071241;28;20094;-92
2023/08/12 05:55:05;;;;;;;4.72;4.03;;;;;;;20.72;53.22;93857.72;5069964;28;20425;-90
2023/08/12 05:57:30;;;;;;;4.30;3.90;;;;;;;20.76;53.07;93849.19;5071849;28;20725;-90
2023/08/12 05:59:56;;;;;;;4.45;3.72;;;;;;;20.76;53.18;93860.91;5104563;28;20332;-90
2023/08/12 06:02:21;;;;;;;5.90;4.28;;;;;;;20.78;52.96;93855.66;5069212;28;20061;-91
2023/08/12 06:04:47;;;;;;;4.35;3.65;;;;;;;20.79;53.17;93851.63;5091604;28;20046;-90
2023/08/12 06:07:12;;;;;;;4.72;4.22;;;;;;;20.83;53.07;93854.09;5065213;28;20044;-89
2023/08/12 06:09:38;;;;;;;4.85;3.97;;;;;;;20.85;52.92;93851.56;5091208;28;20037;-89
2023/08/12 06:12:05;;;;;;;6.25;3.97;;;;;;;20.85;52.97;93852.31;5087170;28;20036;-90
2023/08/12 06:14:31;;;;;;;6.05;4.35;;;;;;;20.87;52.94;93852.53;5091216;28;20046;-89
2023/08/12 06:16:56;;;;;;;5.10;3.65;;;;;;;20.89;52.95;93852.03;5073227;28;20141;-89
2023/08/12 06:19:22;;;;;;;4.15;3.75;;;;;;;20.91;52.82;93851.53;5090089;27;20044;-89
2023/08/12 06:21:47;;;;;;;5.57;4.05;;;;;;;20.91;52.79;93852.25;5072127;28;20047;-91
2023/08/12 06:24:13;;;;;;;5.32;4.00;;;;;;;20.92;52.72;93850.25;5088281;28;20359;-92
2023/08/12 06:26:38;;;;;;;4.55;3.70;;;;;;;20.95;52.77;93840.97;5073489;28;20043;-89
2023/08/12 06:29:04;;;;;;;5.00;4.20;;;;;;;20.95;52.95;93844.47;5089836;28;20043;-93
2023/08/12 06:31:30;;;;;;;4.10;3.47;;;;;;;20.95;52.83;93840.97;5090680;28;20493;-93
2023/08/12 06:33:55;;;;;;;4.60;3.72;;;;;;;20.97;52.92;93843.97;5053735;28;20075;-91
2023/08/12 06:36:21;;;;;;;5.18;3.90;;;;;;;21.00;52.94;93840.19;5052312;28;20028;-90
2023/08/12 06:38:46;;;;;;;4.85;3.90;;;;;;;20.97;53.06;93839.22;5069720;28;20041;-88
2023/08/12 06:41:11;;;;;;;4.78;3.92;;;;;;;21.00;52.72;93843.66;5089017;28;20042;-91
2023/08/12 06:43:37;;;;;;;5.05;3.85;;;;;;;21.01;52.83;93847.13;5070739;28;20036;-89
2023/08/12 06:46:02;;;;;;;5.25;3.60;;;;;;;21.03;52.71;93839.88;5076796;28;20142;-89
2023/08/12 06:48:28;;;;;;;4.05;3.45;;;;;;;21.04;52.90;93844.09;5100845;28;20093;-91
2023/08/12 06:50:55;;;;;;;6.45;4.18;;;;;;;21.04;52.90;93838.59;5070517;28;20036;-88
2023/08/12 06:53:20;;;;;;;4.65;4.05;;;;;;;21.06;52.83;93841.59;5068676;28;20041;-93
2023/08/12 06:55:46;;;;;;;4.53;3.58;;;;;;;21.09;52.76;93837.06;5069617;28;20032;-93
2023/08/12 06:58:12;;;;;;;5.72;3.67;;;;;;;21.09;52.48;93843.31;5060714;28;20053;-91
2023/08/12 07:00:38;;;;;;;4.90;3.60;;;;;;;21.11;52.69;93831.78;5055941;28;20028;-88
2023/08/12 07:03:03;;;;;;;4.35;3.70;;;;;;;21.14;52.59;93831.50;5052246;28;20044;-91
2023/08/12 07:05:28;;;;;;;4.97;3.55;;;;;;;21.15;52.39;93837.75;5050142;28;20178;-89
2023/08/12 07:07:54;;;;;;;4.05;3.58;;;;;;;21.16;52.73;93833.72;5047231;28;20052;-90
2023/08/12 07:10:19;;;;;;;7.03;3.80;;;;;;;21.17;52.56;93838.72;5069423;28;20498;-90
2023/08/12 07:12:45;;;;;;;4.90;3.53;;;;;;;21.21;52.54;93838.44;5072953;28;20037;-92
2023/08/12 07:15:10;;;;;;;5.35;3.80;;;;;;;21.18;52.54;93834.72;5067274;28;20041;-87
2023/08/12 07:17:36;;;;;;;4.07;3.50;;;;;;;21.19;52.39;93833.44;5049758;28;20040;-89
2023/08/12 07:20:02;;;;;;;4.43;3.60;;;;;;;21.19;52.37;93835.44;5064464;28;20044;-90
2023/08/12 07:22:27;;;;;;;4.45;3.42;;;;;;;21.20;52.39;93831.47;5034711;28;20071;-90
2023/08/12 07:24:54;;;;;;;5.25;3.30;;;;;;;21.20;52.60;93821.22;5053208;28;20048;-93
2023/08/12 07:27:20;;;;;;;6.20;4.13;;;;;;;21.20;52.40;93829.47;5065820;28;20558;-90
2023/08/12 07:29:46;;;;;;;4.07;3.47;;;;;;;21.22;52.56;93836.44;5086481;28;20040;-91
2023/08/12 07:32:12;;;;;;;3.92;3.28;;;;;;;21.24;52.52;93825.66;5068755;28;20036;-93
2023/08/12 07:34:37;;;;;;;4.35;3.63;;;;;;;21.23;52.42;93832.41;5066788;28;20044;-91
2023/08/12 07:37:03;;;;;;;4.40;3.58;;;;;;;21.22;52.44;93831.66;5060543;28;20044;-92
2023/08/12 07:39:28;;;;;;;4.20;2.95;;;;;;;;;;5053077;28;20113;-91
2023/08/12 07:41:53;;;;;;;4.60;3.42;;;;;;;21.25;52.52;93827.13;5077482;28;20052;-91
2023/08/12 07:44:19;;;;;;;5.15;3.45;;;;;;;21.28;52.52;93828.84;5082349;28;20067;-91
2023/08/12 07:46:44;;;;;;;5.90;3.40;;;;;;;21.27;52.29;93830.13;5053482;28;20074;-91
2023/08/12 07:49:11;;;;;;;3.60;3.05;;;;;;;21.26;52.35;93829.38;5068626;28;20156;-92
2023/08/12 07:51:36;;;;;;;4.72;4.22;;;;;;;;;;5069417;28;20127;-91
2023/08/12 07:54:01;;;;;;;5.03;3.40;;;;;;;21.24;52.71;93823.66;5072446;28;20195;-92
2023/08/12 07:56:27;;;;;;;4.40;3.55;;;;;;;21.26;52.46;93823.88;5068916;28;20048;-92
2023/08/12 07:58:52;;;;;;;3.88;3.40;;;;;;;21.23;52.75;93824.91;5053511;28;20040;-93
2023/08/12 08:01:18;;;;;;;7.03;3.70;;;;;;;21.23;52.56;93815.91;5053031;28;20044;-92
2023/08/12 08:03:43;;;;;;;3.97;3.08;;;;;;;21.24;52.34;93820.91;5056910;28;20036;-91
2023/08/12 08:06:08;;;;;;;5.38;3.78;;;;;;;21.26;52.60;93823.88;5070576;28;20417;-91
2023/08/12 08:08:35;;;;;;;4.32;3.67;;;;;;;21.24;52.62;93828.41;5060945;28;20043;-89
2023/08/12 08:11:00;;;;;;;4.70;3.60;;;;;;;21.23;52.51;93824.91;5055736;28;20044;-93
2023/08/12 08:13:26;;;;;;;4.22;3.75;;;;;;;21.24;52.65;93829.16;5058558;28;20036;-90
2023/08/12 08:15:51;;;;;;;4.97;3.67;;;;;;;21.24;52.54;93817.41;5089657;28;20094;-92
2023/08/12 08:18:16;;;;;;;4.28;3.42;;;;;;;21.23;52.46;93824.91;5086886;28;20469;-91
2023/08/12 08:20:43;;;;;;;6.00;3.63;;;;;;;21.22;52.68;93825.44;5059346;28;20032;-92
2023/08/12 08:23:08;;;;;;;5.63;3.53;;;;;;;21.23;52.69;93815.91;5049828;28;20036;-91
2023/08/12 08:25:34;;;;;;;4.40;3.55;;;;;;;21.22;52.75;93822.69;5070219;28;20043;-91
2023/08/12 08:27:59;;;;;;;3.80;3.17;;;;;;;21.19;52.94;93816.94;5053934;28;20040;-90
2023/08/12 08:30:25;;;;;;;3.95;3.45;;;;;;;21.20;52.48;93814.97;5051675;28;20486;-91
2023/08/12 08:32:51;;;;;;;6.65;3.42;;;;;;;21.20;52.70;93818.47;5064473;28;20074;-88
2023/08/12 08:35:16;;;;;;;5.05;3.60;;;;;;;21.21;52.63;93821.97;5061855;28;20451;-90
2023/08/12 08:37:42;;;;;;;7.25;3.33;;;;;;;21.22;52.62;93812.41;5028149;28;20378;-90
2023/08/12 08:40:08;;;;;;;7.93;3.35;;;;;;;21.27;52.51;93824.63;5053066;28;20048;-91
2023/08/12 08:42:33;;;;;;;4.15;3.28;;;;;;;21.24;52.70;93820.91;5061990;28;20412;-91
2023/08/12 08:45:01;;;;;;;3.72;3.42;;;;;;;21.20;52.67;93814.97;5053308;28;20098;-90
2023/08/12 08:47:26;;;;;;;4.35;3.90;;;;;;;21.18;52.65;93804.47;5072277;28;20033;-89
2023/08/12 08:49:54;;;;;;;4.38;3.70;;;;;;;21.16;52.77;93809.00;5045419;28;20506;-91
2023/08/12 08:52:19;;;;;;;4.40;3.83;;;;;;;21.18;52.72;93804.47;5062806;28;20036;-90
2023/08/12 08:54:45;;;;;;;6.72;3.80;;;;;;;21.19;52.67;93810.69;5061974;28;20040;-93
2023/08/12 08:57:12;;;;;;;5.10;3.55;;;;;;;21.19;52.79;93808.69;5057520;28;20029;-90
2023/08/12 08:59:37;;;;;;;6.68;3.60;;;;;;;21.20;52.75;93804.72;5090865;28;20046;-92
2023/08/12 09:02:03;;;;;;;10.90;4.43;;;;;;;21.21;52.79;93813.72;5066478;28;20025;-91
2023/08/12 09:04:28;;;;;;;8.20;3.70;;;;;;;21.20;53.01;93807.47;5073482;28;20044;-94
2023/08/12 09:06:54;;;;;;;7.65;3.88;;;;;;;21.23;52.90;93807.66;5073014;28;20032;-89
2023/08/12 09:09:19;;;;;;;15.25;5.60;;;;;;;21.22;52.79;93803.47;5083836;28;20048;-91
2023/08/12 09:11:45;;;;;;;6.35;3.50;;;;;;;21.23;52.93;93813.16;5039375;28;20036;-90
2023/08/12 09:14:10;;;;;;;6.55;3.65;;;;;;;21.21;52.70;93802.72;5058761;28;20126;-90
2023/08/12 09:16:36;;;;;;;5.63;3.90;;;;;;;21.20;52.94;93801.97;5070785;28;20033;-91
2023/08/12 09:19:01;;;;;;;8.55;3.97;;;;;;;21.22;52.76;93803.47;5086108;28;20055;-92
2023/08/12 09:21:27;;;;;;;9.60;4.53;;;;;;;21.21;52.79;93808.22;5039762;28;20036;-89
2023/08/12 09:23:52;;;;;;;9.38;4.15;;;;;;;21.21;53.08;93799.97;5084923;28;20048;-87
2023/08/12 09:26:19;;;;;;;5.93;3.50;;;;;;;21.19;52.86;93794.94;5060545;28;20029;-93
2023/08/12 09:28:45;;;;;;;5.55;3.85;;;;;;;21.19;53.09;93803.19;5072374;28;20032;-91
2023/08/12 09:31:28;;;;;;;9.57;3.75;;;;;;;21.18;53.13;93803.72;5055957;28;20036;-89
2023/08/12 09:33:53;;;;;;;3.75;3.25;;;;;;;21.19;52.99;93805.19;5057027;28;20093;-88
2023/08/12 09:36:21;;;;;;;4.00;3.60;;;;;;;21.18;53.01;93801.72;5056789;28;20033;-93
2023/08/12 09:38:47;;;;;;;4.28;3.60;;;;;;;21.19;52.93;93807.94;5056732;28;20064;-92
2023/08/12 09:41:12;;;;;;;5.03;3.85;;;;;;;21.19;53.07;93797.69;5061434;28;20045;-90
2023/08/12 09:43:44;;;;;;;7.15;3.55;;;;;;;21.18;53.17;93795.47;5048661;28;20033;-93
2023/08/12 09:46:13;;;;;;;5.22;3.78;;;;;;;21.18;53.08;93800.97;5070241;28;20053;-92
2023/08/12 09:48:39;;;;;;;6.00;3.42;;;;;;;21.20;52.98;93801.22;5070014;28;20052;-92
2023/08/12 09:51:05;;;;;;;5.35;3.05;;;;;;;21.20;53.04;93795.72;5077792;28;20131;-91
2023/08/12 09:53:32;;;;;;;5.10;3.13;;;;;;;21.20;53.07;93803.97;5063469;28;20116;-89
2023/08/12 09:55:58;;;;;;;9.25;3.67;;;;;;;21.19;53.00;93799.72;5090789;28;20584;-91
2023/08/12 09:58:24;;;;;;;7.18;4.03;;;;;;;21.19;52.96;93794.94;5057533;28;20074;-88
2023/08/12 10:00:50;;;;;;;3.78;3.40;;;;;;;21.20;53.15;93792.97;5060007;28;20036;-91
2023/08/12 10:03:16;;;;;;;4.78;3.60;;;;;;;21.18;53.06;93795.47;5054527;28;20079;-88
2023/08/12 10:05:42;;;;;;;4.78;3.97;;;;;;;21.19;53.26;93792.19;5090845;28;20059;-89
2023/08/12 10:08:07;;;;;;;4.47;3.38;;;;;;;21.19;53.05;93789.44;5061874;28;20051;-89
2023/08/12 10:10:34;;;;;;;5.80;3.22;;;;;;;21.18;53.40;93790.72;5062669;28;20502;-92
2023/08/12 10:13:00;;;;;;;4.85;3.55;;;;;;;21.18;53.15;93790.72;5056643;28;20056;-89
2023/08/12 10:15:25;;;;;;;5.15;3.33;;;;;;;21.19;53.27;93794.94;5054702;28;20406;-89
2023/08/12 10:17:51;;;;;;;6.75;3.33;;;;;;;21.19;53.20;93791.47;5083861;28;20040;-88
2023/08/12 10:20:20;;;;;;;5.28;3.53;;;;;;;21.19;53.27;93783.94;5064128;28;20094;-90
2023/08/12 10:22:46;;;;;;;5.43;3.45;;;;;;;21.18;53.31;93787.97;5085066;28;20068;-89
2023/08/12 10:25:11;;;;;;;4.90;3.38;;;;;;;21.20;53.37;93787.47;5052329;28;21003;-92
2023/08/12 10:27:38;;;;;;;4.28;3.38;;;;;;;21.20;52.93;93787.47;5073457;28;20028;-93
2023/08/12 10:30:04;;;;;;;5.10;3.22;;;;;;;21.19;53.18;93781.19;5059844;28;20040;-89
2023/08/12 10:32:30;;;;;;;3.90;3.10;;;;;;;21.19;53.05;93786.69;5054027;28;20071;-92
2023/08/12 10:34:56;;;;;;;4.28;3.50;;;;;;;21.20;53.14;93787.47;5064983;28;20043;-88
2023/08/12 10:37:23;;;;;;;4.35;2.88;;;;;;;21.19;53.33;93780.47;5087887;28;20504;-90
2023/08/12 10:39:48;;;;;;;4.78;3.40;;;;;;;21.20;53.12;93784.72;5073438;28;20517;-90
2023/08/12 10:42:14;;;;;;;5.80;3.72;;;;;;;21.20;53.21;93784.72;5069547;28;20037;-90
2023/08/12 10:44:58;;;;;;;3.95;3.47;;;;;;;21.19;53.08;93775.72;5088116;28;20493;-91
2023/08/12 10:47:23;;;;;;;4.35;3.60;;;;;;;21.19;53.21;93775.72;5053751;28;20095;-88
2023/08/12 10:49:49;;;;;;;3.53;3.22;;;;;;;21.18;53.21;93771.47;5078868;28;20036;-90
2023/08/12 10:52:31;;;;;;;4.97;3.88;;;;;;;21.17;53.17;93783.72;5088704;28;20032;-89
2023/08/12 10:55:16;;;;;;;3.80;3.40;;;;;;;21.18;53.39;93781.72;5070272;28;20097;-90
2023/08/12 10:57:41;;;;;;;7.15;3.42;;;;;;;21.18;53.12;93771.47;5078630;28;20047;-90
2023/08/12 11:00:11;;;;;;;4.57;3.90;;;;;;;21.18;53.46;93776.22;5052526;28;20044;-90
2023/08/12 11:02:37;;;;;;;4.63;3.25;;;;;;;21.19;53.09;93772.97;5045758;28;20032;-91
2023/08/12 11:05:04;;;;;;;3.33;3.03;;;;;;;21.19;53.12;93767.47;5073104;28;20032;-89
2023/08/12 11:07:46;;;;;;;5.68;3.60;;;;;;;21.17;53.32;93761.72;5068253;28;20041;-89
2023/08/12 11:10:22;;;;;;;4.93;3.75;;;;;;;21.18;53.17;93770.72;5038438;28;20055;-91
2023/08/12 11:12:47;;;;;;;10.18;3.38;;;;;;;21.18;53.20;93760.47;5074396;28;20036;-89
2023/08/12 11:15:12;;;;;;;3.88;2.92;;;;;;;21.18;53.23;93765.22;5089377;28;20100;-91
2023/08/12 11:17:41;;;;;;;5.50;3.60;;;;;;;21.18;53.40;93765.97;5073348;28;20397;-90
2023/08/12 11:20:09;;;;;;;6.80;3.92;;;;;;;21.19;53.39;93763.97;5066468;28;20045;-91
2023/08/12 11:22:37;;;;;;;3.83;3.45;;;;;;;21.19;53.13;93761.22;5054482;28;20119;-91
2023/08/12 11:25:06;;;;;;;4.72;3.22;;;;;;;21.19;53.22;93763.97;5088457;28;20555;-91
2023/08/12 11:27:41;;;;;;;3.83;3.42;;;;;;;21.18;53.37;93765.97;5071857;28;20044;-91
2023/08/12 11:30:07;;;;;;;4.20;3.00;;;;;;;21.18;53.42;93756.97;5058693;28;20133;-89